Time;durP1;ratioP1;P1;durP2;ratioP2;P2;SDS_P1;SDS_P2;PMS_P1;PMS_P2;Temp;Humidity;BMP_temperature;BMP_pressure;BME280_temperature;BME280_humidity;BME280_pressure;Samples;Min_cycle;Max_cycle;Signal;HPM_P1;HPM_P2
2023/09/13 00:01:08;;;;;;;41.10;20.60;;;;;;;9.47;100.00;101188.30;105200;1263;64368;-52
2023/09/13 00:03:36;;;;;;;45.40;21.10;;;;;;;9.44;100.00;101188.47;105235;1263;70719;-49
2023/09/13 00:06:04;;;;;;;41.50;21.40;;;;;;;9.41;100.00;101188.31;105126;1263;59672;-51
2023/09/13 00:08:32;;;;;;;51.00;20.00;;;;;;;9.39;100.00;101185.40;105298;1260;59663;-51
2023/09/13 00:11:03;;;;;;;36.90;18.20;;;;;;;9.39;100.00;101186.77;105238;1260;71851;-50
2023/09/13 00:13:32;;;;;;;35.90;19.20;;;;;;;9.39;100.00;101185.04;105239;1259;64446;-50
2023/09/13 00:16:01;;;;;;;41.30;18.80;;;;;;;9.40;100.00;101180.05;105287;1260;71694;-51
2023/09/13 00:18:29;;;;;;;37.50;19.20;;;;;;;9.39;100.00;101174.88;105260;1262;59740;-51
2023/09/13 00:20:57;;;;;;;38.70;20.70;;;;;;;9.38;100.00;101174.89;105426;1262;59630;-50
2023/09/13 00:23:25;;;;;;;44.30;20.80;;;;;;;9.34;100.00;101176.44;105460;1262;72055;-49
2023/09/13 00:25:53;;;;;;;38.50;20.60;;;;;;;9.31;100.00;101173.17;105254;1260;64309;-50
2023/09/13 00:28:20;;;;;;;44.50;21.30;;;;;;;9.28;100.00;101177.15;105401;1262;70946;-51
2023/09/13 00:30:48;;;;;;;42.20;19.60;;;;;;;9.23;100.00;101178.20;105223;1264;60542;-50
2023/09/13 00:33:17;;;;;;;45.70;20.40;;;;;;;9.21;100.00;101180.59;105254;1261;59573;-50
2023/09/13 00:35:45;;;;;;;39.20;21.10;;;;;;;9.18;100.00;101179.91;105196;1260;73137;-50
2023/09/13 00:38:13;;;;;;;34.20;19.60;;;;;;;9.16;100.00;101178.18;105251;1264;63372;-50
2023/09/13 00:40:41;;;;;;;37.90;19.30;;;;;;;9.17;100.00;101176.98;105180;1263;72688;-51
2023/09/13 00:43:08;;;;;;;50.80;18.90;;;;;;;9.18;100.00;101173.88;105374;1260;60208;-51
2023/09/13 00:45:36;;;;;;;37.90;18.60;;;;;;;9.15;100.00;101172.85;105392;1262;59724;-50
2023/09/13 00:48:05;;;;;;;47.70;19.30;;;;;;;9.11;100.00;101171.48;105426;1263;73059;-52
2023/09/13 00:50:35;;;;;;;45.20;18.60;;;;;;;9.07;100.00;101173.36;105356;1260;64413;-51
2023/09/13 00:53:19;;;;;;;45.40;19.30;;;;;;;9.07;100.00;101173.02;105271;1264;71646;-52
2023/09/13 00:55:49;;;;;;;31.50;18.30;;;;;;;9.15;100.00;101175.60;105498;1260;61867;-49
2023/09/13 00:58:18;;;;;;;34.00;17.80;;;;;;;9.20;100.00;101174.39;105259;1263;60015;-52
2023/09/13 01:00:48;;;;;;;38.00;18.60;;;;;;;9.23;100.00;101173.02;105285;1263;73127;-49
2023/09/13 01:03:16;;;;;;;38.80;18.30;;;;;;;9.25;100.00;101173.20;105362;1259;63381;-50
2023/09/13 01:05:45;;;;;;;40.40;17.90;;;;;;;9.26;100.00;101171.12;105263;1265;71447;-50
2023/09/13 01:08:13;;;;;;;45.20;19.30;;;;;;;9.27;100.00;101170.42;105285;1259;60032;-51
2023/09/13 01:10:42;;;;;;;43.60;18.20;;;;;;;9.24;100.00;101173.02;105544;1261;60740;-51
2023/09/13 01:13:09;;;;;;;44.60;17.90;;;;;;;9.23;100.00;101174.41;105298;1260;71828;-49
2023/09/13 01:15:59;;;;;;;36.00;18.70;;;;;;;9.22;100.00;101172.67;105329;1264;64470;-49
2023/09/13 01:18:32;;;;;;;42.20;17.80;;;;;;;9.19;100.00;101175.26;105386;1259;71452;-54
2023/09/13 01:21:25;;;;;;;36.90;16.70;;;;;;;9.17;100.00;101171.12;105300;1260;59754;-53
2023/09/13 01:24:18;;;;;;;35.60;17.60;;;;;;;9.17;100.00;101169.58;105348;1264;59582;-53
2023/09/13 01:27:09;;;;;;;34.40;16.40;;;;;;;9.17;100.00;101170.60;105365;1263;71225;-58
2023/09/13 01:29:36;;;;;;;34.60;15.70;;;;;;;9.17;100.00;101166.99;105208;1263;63378;-51
2023/09/13 01:32:04;;;;;;;31.30;14.80;;;;;;;9.22;100.00;101162.67;105376;1263;71464;-50
2023/09/13 01:34:32;;;;;;;30.50;16.30;;;;;;;9.24;100.00;101162.86;105253;1262;61640;-51
2023/09/13 01:37:00;;;;;;;33.90;17.10;;;;;;;9.22;100.00;101158.38;105283;1261;59669;-52
2023/09/13 01:39:29;;;;;;;34.50;17.30;;;;;;;9.19;100.00;101161.13;105379;1264;70825;-52
2023/09/13 01:42:04;;;;;;;36.60;17.00;;;;;;;9.14;100.00;101159.94;105206;1259;62935;-51
2023/09/13 01:44:34;;;;;;;31.00;16.80;;;;;;;9.10;100.00;101158.91;105328;1259;72745;-51
2023/09/13 01:47:03;;;;;;;32.00;18.00;;;;;;;9.09;100.00;101159.24;105298;1259;60402;-52
2023/09/13 01:49:30;;;;;;;33.10;17.90;;;;;;;9.05;100.00;101159.42;105343;1259;59542;-51
2023/09/13 01:51:58;;;;;;;37.70;18.50;;;;;;;8.98;100.00;101159.26;105265;1264;72298;-51
2023/09/13 01:54:26;;;;;;;38.70;16.90;;;;;;;8.90;100.00;101158.92;105233;1258;63110;-51
2023/09/13 01:56:54;;;;;;;39.40;16.30;;;;;;;8.82;100.00;101163.56;105240;1258;70783;-51
2023/09/13 01:59:21;;;;;;;36.70;16.40;;;;;;;8.74;100.00;101165.12;105434;1262;60595;-50
2023/09/13 02:01:49;;;;;;;30.80;16.60;;;;;;;8.67;100.00;101166.48;105227;1260;59538;-50
2023/09/13 02:04:17;;;;;;;38.10;18.50;;;;;;;8.60;100.00;101169.94;105487;1259;71816;-50
2023/09/13 02:06:44;;;;;;;41.10;20.30;;;;;;;8.54;100.00;101167.67;105350;1261;63226;-50
2023/09/13 02:09:12;;;;;;;39.30;19.70;;;;;;;8.50;100.00;101172.31;105420;1260;72629;-50
2023/09/13 02:11:40;;;;;;;43.10;19.00;;;;;;;8.45;100.00;101173.65;105321;1260;60034;-51
2023/09/13 02:14:08;;;;;;;55.70;19.60;;;;;;;8.42;100.00;101173.48;105304;1264;59571;-52
2023/09/13 02:16:35;;;;;;;49.10;19.10;;;;;;;8.38;100.00;101173.98;105470;1259;71853;-50
2023/09/13 02:19:04;;;;;;;43.80;21.60;;;;;;;8.35;100.00;101176.38;105403;1260;63160;-51
2023/09/13 02:21:31;;;;;;;43.70;19.50;;;;;;;8.32;100.00;101172.94;105267;1260;72428;-50
2023/09/13 02:23:59;;;;;;;40.40;19.50;;;;;;;8.30;100.00;101171.23;105481;1260;61722;-50
2023/09/13 02:26:27;;;;;;;39.20;19.50;;;;;;;8.27;100.00;101168.97;105337;1263;59535;-51
2023/09/13 02:28:56;;;;;;;45.40;19.10;;;;;;;8.23;100.00;101167.07;105283;1259;71840;-50
2023/09/13 02:31:25;;;;;;;40.00;19.90;;;;;;;8.20;100.00;101171.52;105589;1257;64417;-50
2023/09/13 02:33:54;;;;;;;45.50;20.60;;;;;;;8.17;100.00;101171.00;105583;1257;72664;-50
2023/09/13 02:36:24;;;;;;;39.70;19.70;;;;;;;8.13;100.00;101169.10;105478;1261;60454;-51
2023/09/13 02:38:53;;;;;;;32.00;18.10;;;;;;;8.09;100.00;101169.79;105576;1262;59695;-51
2023/09/13 02:41:20;;;;;;;29.40;16.60;;;;;;;8.06;100.00;101170.95;105537;1258;71810;-51
2023/09/13 02:43:49;;;;;;;30.90;16.10;;;;;;;8.02;100.00;101169.92;105594;1257;63217;-51
2023/09/13 02:46:17;;;;;;;31.00;16.50;;;;;;;8.00;100.00;101170.77;105544;1257;71400;-50
2023/09/13 02:48:45;;;;;;;30.90;15.90;;;;;;;7.99;100.00;101172.33;105574;1260;59885;-52
2023/09/13 02:51:16;;;;;;;28.60;15.10;;;;;;;7.98;100.00;101171.11;105494;1259;59544;-52
2023/09/13 02:53:44;;;;;;;30.50;14.90;;;;;;;7.97;100.00;101173.88;105524;1256;70530;-51
2023/09/13 02:56:12;;;;;;;21.60;14.20;;;;;;;7.96;100.00;101173.87;105569;1256;63182;-51
2023/09/13 02:58:41;;;;;;;29.40;15.80;;;;;;;7.95;100.00;101171.44;105563;1256;72701;-50
2023/09/13 03:01:10;;;;;;;32.40;16.80;;;;;;;7.92;100.00;101172.63;105538;1256;59608;-49
2023/09/13 03:03:41;;;;;;;32.30;16.50;;;;;;;7.88;100.00;101168.33;105560;1260;59684;-51
2023/09/13 03:06:15;;;;;;;30.60;16.90;;;;;;;7.85;100.00;101171.06;105552;1256;71010;-50
2023/09/13 03:08:43;;;;;;;31.90;17.50;;;;;;;7.82;100.00;101173.10;105593;1259;64371;-50
2023/09/13 03:11:16;;;;;;;31.50;16.60;;;;;;;7.79;100.00;101167.77;105549;1257;71756;-50
2023/09/13 03:13:44;;;;;;;28.20;15.40;;;;;;;7.77;100.00;101167.77;105503;1256;61677;-49
2023/09/13 03:16:14;;;;;;;33.90;16.30;;;;;;;7.75;100.00;101168.96;105576;1256;59987;-50
2023/09/13 03:18:42;;;;;;;32.80;14.70;;;;;;;7.75;100.00;101164.66;105533;1256;73009;-52
2023/09/13 03:21:12;;;;;;;24.10;15.10;;;;;;;7.74;100.00;101165.35;105508;1256;63556;-51
2023/09/13 03:23:45;;;;;;;26.50;14.70;;;;;;;7.74;100.00;101164.31;105488;1263;72650;-50
2023/09/13 03:26:24;;;;;;;29.40;15.70;;;;;;;7.73;100.00;101166.37;105503;1259;61754;-52
2023/09/13 03:28:55;;;;;;;27.90;15.40;;;;;;;7.72;100.00;101164.98;105524;1256;59573;-51
2023/09/13 03:31:24;;;;;;;28.40;14.90;;;;;;;7.71;100.00;101164.64;105542;1262;72311;-49
2023/09/13 03:33:54;;;;;;;32.60;16.10;;;;;;;7.70;100.00;101166.69;105474;1259;64942;-50
2023/09/13 03:36:25;;;;;;;30.30;16.70;;;;;;;7.70;100.00;101170.80;105607;1257;71692;-50
2023/09/13 03:38:53;;;;;;;30.80;15.80;;;;;;;7.70;100.00;101170.47;105504;1256;61628;-50
2023/09/13 03:41:23;;;;;;;25.90;15.70;;;;;;;7.69;100.00;101172.17;105540;1260;59560;-52
2023/09/13 03:43:51;;;;;;;27.60;15.30;;;;;;;7.70;100.00;101170.80;105543;1262;73042;-52
2023/09/13 03:46:19;;;;;;;34.90;16.80;;;;;;;7.71;100.00;101171.68;105489;1264;64392;-54
2023/09/13 03:48:50;;;;;;;29.30;16.00;;;;;;;7.75;100.00;101171.71;105587;1257;71807;-52
2023/09/13 03:51:19;;;;;;;28.90;15.00;;;;;;;7.79;100.00;101173.27;105429;1261;60502;-56
2023/09/13 03:53:47;;;;;;;39.60;16.80;;;;;;;7.83;100.00;101173.46;105437;1264;60421;-54
2023/09/13 03:56:14;;;;;;;27.70;15.30;;;;;;;7.88;100.00;101176.23;105549;1256;71636;-52
2023/09/13 03:58:42;;;;;;;28.20;15.90;;;;;;;7.92;100.00;101178.30;105580;1256;63506;-50
2023/09/13 04:01:10;;;;;;;28.90;15.90;;;;;;;7.98;100.00;101179.54;105600;1258;71429;-51
2023/09/13 04:03:39;;;;;;;47.50;16.60;;;;;;;8.04;100.00;101179.04;105293;1264;61634;-51
2023/09/13 04:06:07;;;;;;;32.70;17.30;;;;;;;8.11;100.00;101182.16;105433;1262;60439;-50
2023/09/13 04:08:35;;;;;;;30.40;16.60;;;;;;;8.20;100.00;101181.67;105574;1260;73879;-51
2023/09/13 04:11:04;;;;;;;25.50;15.30;;;;;;;8.34;100.00;101179.48;105538;1256;62650;-52
2023/09/13 04:13:32;;;;;;;32.00;16.10;;;;;;;8.50;100.00;101176.26;105728;1255;71459;-51
2023/09/13 04:16:02;;;;;;;28.10;17.10;;;;;;;8.64;100.00;101173.54;105697;1253;60432;-52
2023/09/13 04:18:30;;;;;;;35.00;16.00;;;;;;;8.82;100.00;101170.12;105704;1257;60376;-51
2023/09/13 04:20:59;;;;;;;33.20;15.20;;;;;;;9.01;100.00;101167.02;105686;1257;73908;-52
2023/09/13 04:23:28;;;;;;;29.40;15.00;;;;;;;9.21;100.00;101167.50;105819;1257;63217;-52
2023/09/13 04:25:57;;;;;;;32.10;15.80;;;;;;;9.43;100.00;101168.51;105763;1253;71980;-50
2023/09/13 04:28:25;;;;;;;36.30;16.10;;;;;;;9.67;100.00;101166.52;105743;1254;60557;-50
2023/09/13 04:30:52;;;;;;;25.80;15.20;;;;;;;9.93;100.00;101166.45;105884;1256;60429;-53
2023/09/13 04:33:42;;;;;;;31.00;14.70;;;;;;;10.20;100.00;101160.27;105713;1253;72584;-51
2023/09/13 04:36:10;;;;;;;32.10;16.50;;;;;;;10.51;100.00;101158.73;105682;1254;63484;-51
2023/09/13 04:38:38;;;;;;;28.20;15.80;;;;;;;10.74;100.00;101159.27;105766;1259;72597;-52
2023/09/13 04:41:13;;;;;;;36.40;15.80;;;;;;;10.96;100.00;101164.08;105689;1257;60423;-52
2023/09/13 04:43:41;;;;;;;31.60;15.10;;;;;;;11.16;100.00;101166.84;105741;1255;60952;-53
2023/09/13 04:46:10;;;;;;;32.40;16.20;;;;;;;11.32;100.00;101172.39;105692;1258;73760;-52
2023/09/13 04:48:39;;;;;;;36.20;17.00;;;;;;;11.46;100.00;101172.41;105713;1253;62226;-50
2023/09/13 04:51:06;;;;;;;31.40;18.00;;;;;;;11.57;100.00;101174.55;105687;1253;72710;-51
2023/09/13 04:53:35;;;;;;;33.40;17.50;;;;;;;11.63;100.00;101180.18;105644;1253;60912;-51
2023/09/13 04:56:03;;;;;;;45.70;17.30;;;;;;;11.64;100.00;101186.41;105684;1257;60509;-50
2023/09/13 04:58:35;;;;;;;36.20;17.30;;;;;;;11.64;100.00;101191.59;105760;1257;72107;-52
2023/09/13 05:01:05;;;;;;;37.30;17.30;;;;;;;11.64;100.00;101197.80;105848;1253;64720;-50
2023/09/13 05:03:34;;;;;;;35.50;16.90;;;;;;;11.66;100.00;101203.48;105710;1253;71831;-52
2023/09/13 05:06:02;;;;;;;43.10;16.50;;;;;;;11.68;100.00;101210.91;105873;1257;60534;-51
2023/09/13 05:08:36;;;;;;;38.10;16.50;;;;;;;11.69;100.00;101223.67;105675;1257;60470;-51
2023/09/13 05:11:04;;;;;;;35.00;17.20;;;;;;;11.71;100.00;101229.53;105729;1253;72563;-50
2023/09/13 05:13:33;;;;;;;27.10;16.50;;;;;;;11.73;100.00;101238.67;105857;1257;64358;-50
2023/09/13 05:16:00;;;;;;;42.20;16.30;;;;;;;11.78;100.00;101249.17;105680;1254;72747;-50
2023/09/13 05:18:29;;;;;;;38.90;16.60;;;;;;;11.84;100.00;101257.08;105873;1253;60492;-51
2023/09/13 05:20:57;;;;;;;44.80;16.90;;;;;;;11.88;100.00;101264.64;105855;1256;60358;-50
2023/09/13 05:23:25;;;;;;;40.70;17.00;;;;;;;11.93;100.00;101274.61;105755;1257;73802;-52
2023/09/13 05:25:55;;;;;;;48.70;17.60;;;;;;;12.00;100.00;101283.02;105764;1253;64463;-52
2023/09/13 05:28:24;;;;;;;45.80;19.40;;;;;;;12.07;100.00;101290.58;105775;1257;71432;-52
2023/09/13 05:30:54;;;;;;;55.00;20.70;;;;;;;12.15;100.00;101296.89;105836;1258;60560;-50
2023/09/13 05:33:23;;;;;;;38.30;17.00;;;;;;;12.25;100.00;101306.98;105885;1257;60423;-52
2023/09/13 05:35:52;;;;;;;65.50;19.90;;;;;;;12.36;100.00;101314.64;105734;1253;72524;-51
2023/09/13 05:38:20;;;;;;;62.60;20.50;;;;;;;12.47;100.00;101316.58;105749;1254;63285;-51
2023/09/13 05:40:48;;;;;;;52.00;19.50;;;;;;;12.57;100.00;101330.48;105692;1254;72792;-51
2023/09/13 05:43:16;;;;;;;61.70;19.60;;;;;;;12.70;100.00;101343.30;105711;1253;60973;-51
2023/09/13 05:45:44;;;;;;;62.00;21.50;;;;;;;12.81;100.00;101351.30;105750;1255;60442;-49
2023/09/13 05:48:12;;;;;;;66.10;23.70;;;;;;;12.92;100.00;101364.99;105774;1254;73861;-49
2023/09/13 05:50:40;;;;;;;61.00;21.30;;;;;;;13.03;100.00;101380.96;105671;1257;63848;-50
2023/09/13 05:53:08;;;;;;;54.50;20.20;;;;;;;13.15;100.00;101394.31;105717;1258;72716;-51
2023/09/13 05:55:37;;;;;;;84.20;31.60;;;;;;;13.28;100.00;101413.89;105703;1258;60391;-50
2023/09/13 05:58:04;;;;;;;83.60;28.60;;;;;;;13.41;100.00;101436.77;105750;1257;60404;-52
2023/09/13 06:00:32;;;;;;;67.60;24.30;;;;;;;13.53;100.00;101464.02;105682;1258;74146;-49
2023/09/13 06:03:00;;;;;;;61.90;21.20;;;;;;;13.65;100.00;101487.77;105694;1254;64443;-51
2023/09/13 06:05:29;;;;;;;44.40;18.40;;;;;;;13.79;100.00;101507.52;105697;1253;72682;-50
2023/09/13 06:07:57;;;;;;;53.00;17.30;;;;;;;13.93;100.00;101527.95;105761;1257;60583;-51
2023/09/13 06:10:25;;;;;;;41.00;14.00;;;;;;;14.05;100.00;101563.68;105716;1258;60356;-51
2023/09/13 06:12:53;;;;;;;49.50;16.80;;;;;;;14.20;100.00;101604.77;105714;1253;72688;-50
2023/09/13 06:15:21;;;;;;;40.70;16.20;;;;;;;14.36;100.00;101644.80;105742;1254;63151;-53
2023/09/13 06:17:48;;;;;;;49.20;15.80;;;;;;;14.50;100.00;101678.10;105820;1259;71512;-51
2023/09/13 06:20:16;;;;;;;41.00;13.70;;;;;;;14.63;100.00;101689.36;105595;1253;60500;-50
2023/09/13 06:22:44;;;;;;;44.70;15.50;;;;;;;14.75;100.00;101689.39;105645;1254;60328;-51
2023/09/13 06:25:11;;;;;;;42.70;15.00;;;;;;;14.89;100.00;101685.68;105712;1253;72674;-52
2023/09/13 06:27:39;;;;;;;42.70;16.00;;;;;;;15.02;100.00;101671.38;105718;1257;63199;-52
2023/09/13 06:30:07;;;;;;;31.70;13.80;;;;;;;15.18;100.00;101650.56;105812;1253;71005;-50
2023/09/13 06:32:35;;;;;;;36.90;13.80;;;;;;;15.34;100.00;101622.11;105863;1253;60483;-50
2023/09/13 06:35:10;;;;;;;50.60;14.90;;;;;;;15.50;100.00;101583.01;105746;1257;60362;-52
2023/09/13 06:37:42;;;;;;;40.10;14.90;;;;;;;15.66;100.00;101551.86;105727;1253;72669;-51
2023/09/13 06:40:11;;;;;;;54.20;12.70;;;;;;;15.82;100.00;101511.48;105833;1253;64514;-51
2023/09/13 06:42:40;;;;;;;37.60;11.70;;;;;;;15.98;100.00;101460.29;105736;1254;71560;-52
2023/09/13 06:45:26;;;;;;;43.60;11.00;;;;;;;16.16;100.00;101356.45;105834;1254;60528;-51
2023/09/13 06:47:54;;;;;;;38.00;10.20;;;;;;;16.31;100.00;101273.46;105883;1257;60345;-50
2023/09/13 06:50:24;;;;;;;24.80;9.90;;;;;;;16.46;100.00;101158.23;105742;1253;72670;-50
2023/09/13 06:53:12;;;;;;;35.60;10.20;;;;;;;16.65;100.00;101019.29;105834;1253;63948;-50
2023/09/13 06:55:42;;;;;;;32.20;10.30;;;;;;;16.81;100.00;100918.33;105705;1259;71388;-50
2023/09/13 06:58:14;;;;;;;20.60;10.60;;;;;;;16.97;100.00;100816.84;105816;1257;60344;-50
2023/09/13 07:00:48;;;;;;;24.20;10.50;;;;;;;17.12;100.00;100736.57;105708;1257;60488;-51
2023/09/13 07:03:35;;;;;;;19.50;9.00;;;;;;;17.29;100.00;100672.38;105828;1257;72126;-50
2023/09/13 07:06:07;;;;;;;31.00;8.90;;;;;;;17.43;100.00;100618.23;105705;1257;64461;-50
2023/09/13 07:08:35;;;;;;;22.90;9.00;;;;;;;17.60;100.00;100607.73;105759;1257;71455;-50
2023/09/13 07:11:04;;;;;;;35.80;9.10;;;;;;;17.76;100.00;100617.48;105694;1253;60560;-50
2023/09/13 07:13:31;;;;;;;28.50;10.30;;;;;;;17.91;100.00;100630.58;105767;1258;60407;-50
2023/09/13 07:15:59;;;;;;;17.50;9.10;;;;;;;18.09;100.00;100646.52;105918;1253;73769;-52
2023/09/13 07:18:27;;;;;;;31.20;10.40;;;;;;;18.27;100.00;100668.23;105751;1255;63103;-51
2023/09/13 07:20:56;;;;;;;24.00;9.80;;;;;;;18.43;100.00;100707.30;105858;1254;72709;-51
2023/09/13 07:23:24;;;;;;;25.00;8.80;;;;;;;18.60;100.00;100754.04;105858;1257;60511;-52
2023/09/13 07:25:52;;;;;;;28.50;8.90;;;;;;;18.79;100.00;100792.13;105772;1253;60895;-49
2023/09/13 07:28:21;;;;;;;23.90;8.50;;;;;;;18.99;100.00;100828.09;105749;1258;72949;-49
2023/09/13 07:30:49;;;;;;;25.60;8.70;;;;;;;19.18;100.00;100870.93;105732;1254;63532;-51
2023/09/13 07:33:17;;;;;;;22.60;7.50;;;;;;;19.35;100.00;100937.83;105745;1259;72656;-50
2023/09/13 07:35:45;;;;;;;20.50;8.10;;;;;;;19.51;100.00;100982.04;105760;1253;60534;-50
2023/09/13 07:38:14;;;;;;;31.60;9.90;;;;;;;19.69;100.00;101001.99;105795;1257;60439;-51
2023/09/13 07:40:42;;;;;;;45.30;21.10;;;;;;;19.90;100.00;101017.13;105751;1253;72588;-50
2023/09/13 07:43:10;;;;;;;20.20;10.10;;;;;;;20.09;100.00;101016.92;105757;1253;63145;-50
2023/09/13 07:45:37;;;;;;;15.10;7.50;;;;;;;20.28;99.33;101027.21;105734;1253;72982;-50
2023/09/13 07:48:05;;;;;;;11.90;6.80;;;;;;;20.45;91.51;101023.19;105742;1257;60984;-51
2023/09/13 07:50:40;;;;;;;20.70;7.70;;;;;;;20.61;78.78;100999.60;105835;1259;60300;-50
2023/09/13 07:53:12;;;;;;;15.90;7.50;;;;;;;20.74;73.75;100973.48;105733;1253;72887;-51
2023/09/13 07:55:40;;;;;;;23.70;7.60;;;;;;;20.87;71.83;100989.84;105771;1257;63115;-51
2023/09/13 07:58:08;;;;;;;17.70;7.80;;;;;;;21.02;73.30;101047.29;105746;1254;73356;-51
2023/09/13 08:00:36;;;;;;;27.00;7.30;;;;;;;21.25;74.51;101063.98;105751;1253;60550;-51
2023/09/13 08:03:04;;;;;;;17.70;6.50;;;;;;;21.48;73.84;101052.56;105787;1256;60337;-50
2023/09/13 08:05:32;;;;;;;23.90;7.80;;;;;;;21.72;72.98;101036.86;105851;1253;73919;-50
2023/09/13 08:08:00;;;;;;;23.20;7.90;;;;;;;21.91;70.48;101000.47;105735;1255;63110;-50
2023/09/13 08:13:09;;;;;;;17.00;7.10;;;;;;;22.24;66.82;100972.05;102639;1293;600230;-50
2023/09/13 08:15:37;;;;;;;19.70;7.30;;;;;;;22.43;66.76;100982.91;104876;1266;60030;-51
2023/09/13 08:18:17;;;;;;;17.50;7.30;;;;;;;22.70;66.16;100967.55;105066;1267;59979;-49
2023/09/13 08:20:45;;;;;;;19.40;8.00;;;;;;;22.93;64.64;100927.48;105109;1266;71182;-50
2023/09/13 08:23:14;;;;;;;26.60;7.00;;;;;;;23.10;62.34;100840.85;105101;1265;63138;-50
2023/09/13 08:25:42;;;;;;;14.00;7.60;;;;;;;23.27;61.13;100808.60;104902;1269;234010;-51
2023/09/13 08:28:10;;;;;;;13.60;6.40;;;;;;;23.47;60.41;100804.13;105199;1263;59334;-51
2023/09/13 08:30:38;;;;;;;11.80;5.90;;;;;;;23.67;58.02;100654.85;105284;1263;59355;-50
2023/09/13 08:33:07;;;;;;;11.10;6.00;;;;;;;23.87;58.26;100698.70;105176;1267;70029;-50
2023/09/13 08:35:35;;;;;;;11.20;5.40;;;;;;;24.09;57.79;100687.48;105275;1266;64381;-51
2023/09/13 08:38:03;;;;;;;13.90;5.50;;;;;;;24.31;56.37;100595.13;105150;1267;71384;-51
2023/09/13 08:40:31;;;;;;;16.60;6.40;;;;;;;24.50;54.84;100466.58;105155;1267;59968;-51
2023/09/13 08:42:59;;;;;;;15.10;5.40;;;;;;;24.68;53.70;100393.04;105163;1264;60647;-55
2023/09/13 08:45:27;;;;;;;12.50;5.20;;;;;;;24.82;52.52;100307.45;104886;1269;72086;-51
2023/09/13 08:48:01;;;;;;;16.10;4.90;;;;;;;24.97;52.53;100325.33;104927;1263;63398;-52
2023/09/13 08:50:30;;;;;;;7.30;4.70;;;;;;;25.17;52.77;100363.08;105227;1265;71381;-54
2023/09/13 08:52:59;;;;;;;8.40;4.40;;;;;;;25.38;54.35;100555.29;105490;1262;60244;-51
2023/09/13 08:55:27;;;;;;;6.20;4.60;;;;;;;25.58;54.37;100573.96;105600;1260;59634;-52
2023/09/13 08:57:59;;;;;;;12.30;4.90;;;;;;;25.84;53.83;100526.85;105604;1260;75320;-51
2023/09/13 09:00:29;;;;;;;17.50;5.20;;;;;;;26.08;51.54;100276.68;105553;1262;64644;-51
2023/09/13 09:02:58;;;;;;;11.50;5.10;;;;;;;26.21;51.17;100215.52;105622;1260;72847;-52
2023/09/13 09:05:27;;;;;;;13.20;4.70;;;;;;;26.38;51.36;100277.69;105585;1258;60103;-52
2023/09/13 09:07:56;;;;;;;16.70;5.50;;;;;;;26.50;50.15;100138.35;105640;1258;59545;-52
2023/09/13 09:10:24;;;;;;;24.30;6.70;;;;;;;26.47;51.09;100259.00;105514;1257;73010;-52
2023/09/13 09:12:55;;;;;;;21.10;5.90;;;;;;;26.49;50.69;100250.89;105611;1263;65302;-51
2023/09/13 09:15:23;;;;;;;9.50;5.20;;;;;;;26.55;51.87;100422.52;105550;1258;72644;-51
2023/09/13 09:17:51;;;;;;;13.90;5.00;;;;;;;26.69;48.85;100101.94;105329;1264;59874;-51
2023/09/13 09:20:19;;;;;;;24.30;5.70;;;;;;;26.68;47.95;99953.38;105495;1263;59638;-52
2023/09/13 09:22:47;;;;;;;18.60;5.50;;;;;;;26.74;49.09;100094.25;105568;1258;71818;-52
2023/09/13 09:25:15;;;;;;;17.40;5.00;;;;;;;26.88;49.08;100116.09;105581;1258;63114;-51
2023/09/13 09:27:43;;;;;;;15.30;5.00;;;;;;;27.06;48.06;100013.55;105612;1262;72870;-53
2023/09/13 09:30:14;;;;;;;14.40;5.20;;;;;;;27.16;48.61;100062.73;105569;1257;59730;-53
2023/09/13 09:32:43;;;;;;;19.60;5.20;;;;;;;27.34;48.73;100097.84;105632;1263;59598;-52
2023/09/13 09:35:14;;;;;;;17.40;4.60;;;;;;;27.57;46.93;99880.13;105564;1263;74014;-52
2023/09/13 09:37:44;;;;;;;10.80;4.30;;;;;;;27.65;46.47;99771.45;105574;1263;66609;-52
2023/09/13 09:40:14;;;;;;;10.50;4.70;;;;;;;27.67;46.52;99775.66;105630;1262;73095;-51
2023/09/13 09:42:42;;;;;;;18.60;4.70;;;;;;;27.77;46.35;99805.50;105573;1262;62207;-53
2023/09/13 09:45:10;;;;;;;12.40;4.60;;;;;;;27.89;46.86;99870.61;105612;1260;59682;-51
2023/09/13 09:47:39;;;;;;;46.20;5.80;;;;;;;28.01;45.51;99720.81;105591;1257;74011;-52
2023/09/13 09:50:11;;;;;;;12.10;5.00;;;;;;;28.09;45.09;99642.82;105618;1258;63121;-52
2023/09/13 09:52:39;;;;;;;28.20;5.40;;;;;;;28.14;46.22;99784.70;105604;1257;72694;-52
2023/09/13 09:55:08;;;;;;;7.90;4.50;;;;;;;28.26;43.89;99568.05;105574;1257;59698;-51
2023/09/13 09:57:36;;;;;;;9.30;4.50;;;;;;;27.89;43.04;99373.32;105501;1263;59760;-51
2023/09/13 10:00:07;;;;;;;16.80;4.70;;;;;;;27.58;44.03;99539.54;105556;1257;73722;-52
2023/09/13 10:02:36;;;;;;;18.30;4.30;;;;;;;27.15;43.83;99547.64;105591;1257;64984;-51
2023/09/13 10:05:05;;;;;;;7.20;4.00;;;;;;;26.70;44.98;99717.73;105571;1257;71410;-52
2023/09/13 10:07:49;;;;;;;11.10;3.50;;;;;;;26.59;45.36;99812.06;105610;1258;59820;-51
2023/09/13 10:10:30;;;;;;;10.10;4.50;;;;;;;26.57;44.21;99709.66;105613;1257;60377;-52
2023/09/13 10:12:58;;;;;;;12.00;4.20;;;;;;;26.42;45.67;99878.39;105566;1263;73093;-52
2023/09/13 10:15:26;;;;;;;10.50;3.60;;;;;;;26.51;45.75;99931.77;105580;1263;64106;-52
2023/09/13 10:17:55;;;;;;;4.50;3.20;;;;;;;26.53;44.12;99721.42;105688;1262;73211;-52
2023/09/13 10:20:23;;;;;;;11.40;3.80;;;;;;;26.23;44.08;99708.83;105646;1262;60057;-51
2023/09/13 10:22:54;;;;;;;5.70;3.70;;;;;;;26.08;44.48;99763.91;105601;1257;60255;-52
2023/09/13 10:25:21;;;;;;;12.90;4.30;;;;;;;26.08;45.66;99944.23;105596;1261;73068;-51
2023/09/13 10:27:50;;;;;;;11.40;3.90;;;;;;;26.14;44.27;99791.46;105593;1257;63519;-51
2023/09/13 10:30:22;;;;;;;13.70;3.50;;;;;;;26.05;43.99;99730.58;105634;1260;73329;-52
2023/09/13 10:32:57;;;;;;;10.50;3.40;;;;;;;26.14;44.95;99835.16;105596;1262;60115;-51
2023/09/13 10:35:28;;;;;;;;;;;;;;;26.43;44.24;99757.45;105596;1261;59637;-53
2023/09/13 10:38:05;;;;;;;11.50;3.20;;;;;;;26.43;43.27;99614.72;105542;1257;71575;-52
2023/09/13 10:40:40;;;;;;;6.60;3.50;;;;;;;26.34;43.15;99609.96;105542;1257;63169;-52
2023/09/13 10:43:08;;;;;;;4.10;3.10;;;;;;;26.21;43.13;99598.91;105642;1257;72633;-54
2023/09/13 10:45:40;;;;;;;7.00;3.40;;;;;;;26.25;44.31;99751.25;105548;1257;59752;-53
2023/09/13 10:48:09;;;;;;;4.80;3.30;;;;;;;26.47;44.05;99741.68;105599;1262;59628;-52
2023/09/13 10:50:37;;;;;;;8.20;3.00;;;;;;;26.60;42.91;99587.94;105685;1254;71774;-52
2023/09/13 10:53:05;;;;;;;7.30;3.20;;;;;;;26.60;43.31;99631.98;105785;1252;65568;-50
2023/09/13 10:55:33;;;;;;;24.00;4.20;;;;;;;26.66;43.34;99620.26;105772;1254;71367;-52
2023/09/13 10:58:03;;;;;;;42.70;5.70;;;;;;;26.74;43.86;99705.30;105822;1254;59892;-51
2023/09/13 11:00:32;;;;;;;7.10;3.20;;;;;;;26.72;42.38;99554.73;105714;1258;59727;-52
2023/09/13 11:03:00;;;;;;;10.10;3.60;;;;;;;26.58;43.34;99633.69;105729;1259;73701;-53
2023/09/13 11:05:28;;;;;;;9.20;3.10;;;;;;;26.71;43.42;99680.29;105687;1254;64974;-52
2023/09/13 11:07:56;;;;;;;12.20;4.00;;;;;;;26.82;42.87;99591.59;105655;1254;73028;-55
2023/09/13 11:10:24;;;;;;;14.00;3.60;;;;;;;26.86;43.42;99647.17;105809;1257;60216;-53
2023/09/13 11:12:52;;;;;;;8.10;3.10;;;;;;;27.00;43.46;99653.92;105726;1254;60096;-52
2023/09/13 11:15:25;;;;;;;24.20;5.20;;;;;;;27.13;42.97;99597.07;105815;1252;73866;-52
2023/09/13 11:17:54;;;;;;;105.40;7.60;;;;;;;27.09;42.36;99496.23;105861;1257;64725;-54